METAR Data
IDs: Format: Raw Decoded Include TAF

Data at: 0225 UTC 20 Sep 2020

OAKB 200150Z 34002KT CAVOK 11/M00 Q1018 RMK A3007 BLU BLU

TAF OAKB 192305Z 2000/2024 VRB02KT CAVOK
  BECMG 2010/2012 09012KT FEW080
  BECMG 2013/2014 CAVOK
  TEMPO 2014/2018 02012G22KT
  BECMG 2020/2021 VRB02KT